Espace membre
ImprimablePdf
Challenges > Delhalle - Seraing, 18/05/2008, BEL - Les 10 Miles de Seraing
Liste des rapports > Delhalle - 10 Miles - Classement à l'arrivée
Recherche: Page: [1]
29 Entrées
 
Les réclamations ne sont plus acceptées, les résultats sont considérés comme définitifs.
RangNrNomAgeIOCLigueEquipeRéelTempsTkmMoy.ScrPtsLocalité
1.914FVAN HOOF Wella45BELLIER1:06:561:07:044:11 14.4075793BERLAAR
2.198FSCHAFFRATH Ginette43BELLIEGE1:07:541:07:594:14 14.2084771
3.235FHOUBART Cecile41BELRONVAU1:09:221:09:274:19 13.9097739JODOIGNE
4.2233FHEUSSCHEN Christine40BEL1:14:181:14:384:39 12.94178608HOUSSE
5.1098FBUZIN Donatienne41BELARCH1:15:171:15:524:43 12.73199580HAN SUR LESSE
6.734FYERNAUX Huguette47BELBBS1:16:001:16:144:45 12.67206564NOLLEVAUX
7.1669FFOSTER Chris43BELFLEU1:18:541:19:054:55 12.21264484BOUSVAL
8.379FMESTACH Cristine47BELFLEUFLEURUS ATHL1:19:301:19:414:58 12.12276467MARBAIS
9.1432FSALENS Lia43BEL1:21:211:21:305:04 11.85304423WOLVERTEM
10.539FSECCI Doriane43BELACLO1:21:451:22:115:07 11.75317408MORLANWEZ
11.1147FKEPENNE Carine47BEL1:23:091:23:405:12 11.54332379MALONNE
12.1066FPONTHIEU Roxane42BELFLEUFLEU ATHL1:24:591:25:215:19 11.31347346LIGNY
13.1243FHENRY Francoise44BELTENDONS1:25:131:25:385:20 11.28351340LA HULPE
14.2231FCOURCELLES Therese46BELRIWA1:25:341:25:595:21 11.23354333ROSIERES
15.1860FDEBILDE Anne-Francoise49BELRONVAU1:26:471:27:125:26 11.07374304PERWEZ
16.108FJANSSEN Jacqueline49BELSERSERUNNER1:27:181:27:285:27 11.04376296SERAING
17.1612FD'AQUINO Graziella48BELUACRRTC1:29:331:30:065:36 10.72401251MONTIGNIES-SUR-SAMBRE
18.1396FWENDRICKX Brigitte47BELLANDJOGG1:30:421:31:035:40 10.61412230WORTEL
19.2249FPIRARD Brigitte40ABW1:32:201:32:325:45 10.44417207TONGEREN
20.2004FLUSCHER J. Ann46USA1:32:371:33:135:48 10.36420201BRUXELLES
21.1076FVAN EERDEWEGH Christine40BEL1:33:031:33:275:49 10.33421196SCHEPDAAL
22.1005FCARLIER Marie Paule47BELTORTUES1:33:511:34:215:52 10.24424185MEVERGNIES
23.2357FMARCOTTE France46BEL1:33:491:34:215:52 10.24425184OUGREE
24.964FDARIMONT Jocelyne46BELSPA1:34:431:35:115:55 10.15429171THEUX
25.628FTULCINSKY Helene49BELENJWOL1:39:081:39:306:11 9.71451106WOLUWE SAINT LAMBERT
26.1302FCHAPELLE Carole41BELRCNAMUR1:39:131:39:336:12 9.70452105SOYE (FLOREFFE)
27.773FDEMARCHE Francoise46BELARCHARCH1:39:111:39:486:13 9.68454104YVOIR
28.147FDE MOREAU Monique44BELARCH1:39:111:39:496:13 9.67456102HAVERSIN
29.2263FREMICHE Anne-Marie44BELAMAY1:41:491:42:256:22 9.4346071
DNF: abandon; DSQ: disqualifié; Vitesse en km/h